createdAt,value
2022-12-29T00:00:10.721Z,19.70
2022-12-29T00:02:37.790Z,20.15
2022-12-29T00:05:04.995Z,23.52
2022-12-29T00:07:31.803Z,20.13
2022-12-29T00:09:58.704Z,23.55
2022-12-29T00:12:25.520Z,19.25
2022-12-29T00:15:10.736Z,21.77
2022-12-29T00:17:37.570Z,19.73
2022-12-29T00:20:23.248Z,19.50
2022-12-29T00:23:08.446Z,17.08
2022-12-29T00:26:06.843Z,17.80
2022-12-29T00:28:52.651Z,19.23
2022-12-29T00:31:38.045Z,18.00
2022-12-29T00:34:23.222Z,19.23
2022-12-29T00:36:50.023Z,21.05
2022-12-29T00:39:38.246Z,21.52
2022-12-29T00:42:24.930Z,16.88
2022-12-29T00:44:51.873Z,15.38
2022-12-29T00:47:18.789Z,18.00
2022-12-29T00:49:45.604Z,17.90
2022-12-29T00:52:14.369Z,18.70
2022-12-29T00:54:42.134Z,22.58
2022-12-29T00:57:10.690Z,22.42
2022-12-29T00:59:39.224Z,24.33
2022-12-29T01:02:06.893Z,20.85
2022-12-29T01:04:34.586Z,21.98
2022-12-29T01:07:01.688Z,23.80
2022-12-29T01:09:46.870Z,23.77
2022-12-29T01:12:14.271Z,22.70
2022-12-29T01:14:41.325Z,20.95
2022-12-29T01:17:08.172Z,21.77
2022-12-29T01:19:35.161Z,23.35
2022-12-29T01:22:02.470Z,24.50
2022-12-29T01:24:29.361Z,21.00
2022-12-29T01:26:56.310Z,21.75
2022-12-29T01:29:23.621Z,24.60
2022-12-29T01:31:51.104Z,28.05
2022-12-29T01:34:18.819Z,27.98
2022-12-29T01:36:46.052Z,25.63
2022-12-29T01:39:13.068Z,24.73
2022-12-29T01:41:41.310Z,25.90
2022-12-29T01:44:42.395Z,26.92
2022-12-29T01:47:09.629Z,26.05
2022-12-29T01:49:36.741Z,28.15
2022-12-29T01:52:08.987Z,24.15
2022-12-29T01:59:44.484Z,24.02
2022-12-29T02:02:11.793Z,23.92
2022-12-29T02:04:45.158Z,22.90
2022-12-29T02:07:20.485Z,25.20
2022-12-29T02:09:49.959Z,23.83
2022-12-29T02:12:19.165Z,23.73
2022-12-29T02:14:46.674Z,24.77
2022-12-29T02:17:13.563Z,25.63
2022-12-29T02:19:56.037Z,26.70
2022-12-29T02:23:00.401Z,23.45
2022-12-29T02:25:51.327Z,23.08
2022-12-29T02:28:25.455Z,22.05
2022-12-29T02:31:27.997Z,21.52
2022-12-29T02:34:11.672Z,23.75
2022-12-29T02:36:47.947Z,23.63
2022-12-29T02:39:33.590Z,23.20
2022-12-29T02:42:09.342Z,20.23
2022-12-29T02:44:52.167Z,22.40
2022-12-29T02:47:37.529Z,23.00
2022-12-29T02:50:10.258Z,21.38
2022-12-29T02:52:49.186Z,21.95
2022-12-29T02:55:16.144Z,24.05
2022-12-29T02:57:43.060Z,23.13
2022-12-29T03:00:14.574Z,23.88
2022-12-29T03:03:40.527Z,21.02
2022-12-29T03:06:26.499Z,23.35
2022-12-29T03:08:58.898Z,21.48
2022-12-29T03:11:53.020Z,22.55
2022-12-29T03:14:49.242Z,23.95
2022-12-29T03:17:30.958Z,21.05
2022-12-29T03:20:07.412Z,21.33
2022-12-29T03:22:40.515Z,24.00
2022-12-29T03:25:29.483Z,24.15
2022-12-29T03:28:11.657Z,20.52
2022-12-29T03:30:40.963Z,23.65
2022-12-29T03:33:13.286Z,22.77
2022-12-29T03:35:45.062Z,20.30
2022-12-29T03:38:31.366Z,23.45
2022-12-29T03:41:01.538Z,20.80
2022-12-29T03:43:29.241Z,20.65
2022-12-29T03:45:56.150Z,23.52
2022-12-29T03:48:23.043Z,24.48
2022-12-29T03:50:50.075Z,22.52
2022-12-29T03:53:17.308Z,22.70
2022-12-29T03:55:44.235Z,25.73
2022-12-29T03:58:11.126Z,21.73
2022-12-29T04:00:37.984Z,23.27
2022-12-29T04:03:05.074Z,20.88
2022-12-29T04:05:32.271Z,23.70
2022-12-29T04:07:59.841Z,23.15
2022-12-29T04:10:26.826Z,23.95
2022-12-29T04:12:53.751Z,23.88
2022-12-29T04:15:20.721Z,26.75
2022-12-29T04:17:47.485Z,22.77
2022-12-29T04:20:32.678Z,24.98
2022-12-29T04:23:01.809Z,25.75
2022-12-29T04:25:28.966Z,22.63
2022-12-29T04:27:55.795Z,28.75
2022-12-29T04:30:22.764Z,27.42
2022-12-29T04:32:49.546Z,26.50
2022-12-29T04:35:16.808Z,30.10
2022-12-29T04:37:45.175Z,27.33
2022-12-29T04:40:12.735Z,27.63
2022-12-29T04:42:39.630Z,28.33
2022-12-29T04:45:07.169Z,25.17
2022-12-29T04:47:34.310Z,25.08
2022-12-29T04:50:01.428Z,27.95
2022-12-29T04:52:28.219Z,26.65
2022-12-29T04:54:55.056Z,28.65
2022-12-29T04:57:21.884Z,26.80
2022-12-29T04:59:48.697Z,27.02
2022-12-29T05:02:16.062Z,25.95
2022-12-29T05:04:45.777Z,25.85
2022-12-29T05:07:12.763Z,27.40
2022-12-29T05:09:39.732Z,27.70
2022-12-29T05:12:07.574Z,27.15
2022-12-29T05:14:34.712Z,29.38
2022-12-29T05:17:01.479Z,28.33
2022-12-29T05:19:28.315Z,28.52
2022-12-29T05:21:55.657Z,27.73
2022-12-29T05:24:22.956Z,28.02
2022-12-29T05:26:49.753Z,32.53
2022-12-29T05:29:16.589Z,28.83
2022-12-29T05:31:45.183Z,29.92
2022-12-29T05:34:12.523Z,29.15
2022-12-29T05:36:39.536Z,32.25
2022-12-29T05:39:08.734Z,31.10
2022-12-29T05:41:36.207Z,35.83
2022-12-29T05:44:03.287Z,31.02
2022-12-29T05:46:30.312Z,34.90
2022-12-29T05:48:57.269Z,34.28
2022-12-29T05:51:24.632Z,31.77
2022-12-29T05:53:51.562Z,32.92
2022-12-29T05:56:18.572Z,31.23
2022-12-29T05:58:45.363Z,31.40
2022-12-29T06:01:12.191Z,29.98
2022-12-29T06:03:42.966Z,32.58
2022-12-29T06:06:13.021Z,30.80
2022-12-29T06:08:39.867Z,33.03
2022-12-29T06:11:07.225Z,31.65
2022-12-29T06:13:34.138Z,33.13
2022-12-29T06:16:01.081Z,33.88
2022-12-29T06:18:28.051Z,31.75
2022-12-29T06:20:55.165Z,29.27
2022-12-29T06:23:22.043Z,29.90
2022-12-29T06:25:49.817Z,28.92
2022-12-29T06:28:17.540Z,25.60
2022-12-29T06:30:49.086Z,35.22
2022-12-29T06:33:16.632Z,27.35
2022-12-29T06:35:47.057Z,28.50
2022-12-29T06:38:14.334Z,28.30
2022-12-29T06:40:42.599Z,28.50
2022-12-29T06:43:09.483Z,31.70
2022-12-29T06:45:38.402Z,31.33
2022-12-29T06:48:05.355Z,30.45
2022-12-29T06:50:32.291Z,35.63
2022-12-29T06:52:59.129Z,45.25
2022-12-29T06:55:25.924Z,31.10
2022-12-29T06:57:58.584Z,29.42
2022-12-29T07:00:26.285Z,31.38
2022-12-29T07:02:53.359Z,32.80
2022-12-29T07:05:20.316Z,38.03
2022-12-29T07:07:47.438Z,58.85
2022-12-29T07:10:14.384Z,42.00
2022-12-29T07:12:41.319Z,38.50
2022-12-29T07:15:08.798Z,35.95
2022-12-29T07:17:35.698Z,36.63
2022-12-29T07:20:02.707Z,46.30
2022-12-29T07:22:29.558Z,44.53
2022-12-29T07:24:56.650Z,44.53
2022-12-29T07:27:23.652Z,39.22
2022-12-29T07:29:50.572Z,39.78
2022-12-29T07:32:17.983Z,197.68
2022-12-29T07:34:46.355Z,247.35
2022-12-29T07:37:13.362Z,105.57
2022-12-29T07:39:40.150Z,102.32
2022-12-29T07:42:07.265Z,64.13
2022-12-29T07:44:34.113Z,38.75
2022-12-29T07:47:01.111Z,43.50
2022-12-29T07:49:29.181Z,40.00
2022-12-29T07:51:56.049Z,40.35
2022-12-29T07:54:23.626Z,43.95
2022-12-29T07:56:51.673Z,46.30
2022-12-29T07:59:18.922Z,44.95
2022-12-29T08:01:46.254Z,57.40
2022-12-29T08:04:13.338Z,47.10
2022-12-29T08:06:40.770Z,52.08
2022-12-29T08:09:15.136Z,45.92
2022-12-29T08:11:44.264Z,38.38
2022-12-29T08:14:11.333Z,35.55
2022-12-29T08:16:38.212Z,38.92
2022-12-29T08:19:07.252Z,35.92
2022-12-29T08:21:37.640Z,36.13
2022-12-29T08:24:09.376Z,57.05
2022-12-29T08:26:39.597Z,47.88
2022-12-29T08:29:19.573Z,43.25
2022-12-29T08:31:53.770Z,39.67
2022-12-29T08:34:20.958Z,34.38
2022-12-29T08:36:51.061Z,40.85
2022-12-29T08:39:24.523Z,42.33
2022-12-29T08:41:54.464Z,45.88
2022-12-29T08:44:28.791Z,40.63
2022-12-29T08:49:41.832Z,42.88
2022-12-29T08:52:09.775Z,42.45
2022-12-29T08:54:36.893Z,44.13
2022-12-29T08:57:07.091Z,35.95
2022-12-29T08:59:34.018Z,37.17
2022-12-29T09:02:03.018Z,27.98
2022-12-29T09:04:30.135Z,27.88
2022-12-29T09:07:00.147Z,30.70
2022-12-29T09:09:27.612Z,30.75
2022-12-29T09:11:54.439Z,33.38
2022-12-29T09:14:24.759Z,36.38
2022-12-29T09:17:14.125Z,44.50
2022-12-29T09:19:49.611Z,37.25
2022-12-29T09:22:16.500Z,35.28
2022-12-29T09:24:43.474Z,33.60
2022-12-29T09:27:10.737Z,31.77
2022-12-29T09:29:37.972Z,38.28
2022-12-29T09:32:08.219Z,39.10
2022-12-29T09:34:35.521Z,41.25
2022-12-29T09:37:02.356Z,39.35
2022-12-29T09:39:29.273Z,40.65
2022-12-29T09:42:16.662Z,39.50
2022-12-29T09:45:05.294Z,44.55
2022-12-29T09:47:32.444Z,38.50
2022-12-29T09:50:26.734Z,36.25
2022-12-29T09:55:54.509Z,47.58
2022-12-29T09:58:47.932Z,41.15
2022-12-29T10:01:40.647Z,43.60
2022-12-29T10:04:11.041Z,40.92
2022-12-29T10:07:34.074Z,44.30
2022-12-29T10:15:59.547Z,39.28
2022-12-29T10:18:44.585Z,42.83
2022-12-29T10:21:40.623Z,39.45
2022-12-29T10:24:12.801Z,38.10
2022-12-29T10:29:23.054Z,33.70
2022-12-29T10:32:04.361Z,32.75
2022-12-29T10:34:40.581Z,40.97
2022-12-29T10:37:40.542Z,48.67
2022-12-29T10:40:38.729Z,82.18
2022-12-29T10:43:33.275Z,236.15
2022-12-29T10:46:05.615Z,55.05
2022-12-29T10:48:42.783Z,42.15
2022-12-29T10:51:10.417Z,35.38
2022-12-29T10:53:47.607Z,36.40
2022-12-29T10:56:36.318Z,36.55
2022-12-29T10:59:21.419Z,38.25
2022-12-29T11:02:11.773Z,43.35
2022-12-29T11:04:55.159Z,36.35
2022-12-29T11:07:27.433Z,40.92
2022-12-29T11:09:55.301Z,45.72
2022-12-29T11:12:26.558Z,49.33
2022-12-29T11:15:09.031Z,38.92
2022-12-29T11:20:41.784Z,37.35
2022-12-29T11:23:29.530Z,40.35
2022-12-29T11:26:11.985Z,36.63
2022-12-29T11:28:42.707Z,37.60
2022-12-29T11:31:10.668Z,33.95
2022-12-29T11:33:40.517Z,29.38
2022-12-29T11:36:20.266Z,37.03
2022-12-29T11:38:55.943Z,32.53
2022-12-29T11:41:29.547Z,36.35
2022-12-29T11:44:06.668Z,33.83
2022-12-29T11:46:40.056Z,31.63
2022-12-29T11:49:07.697Z,36.13
2022-12-29T11:51:51.989Z,32.38
2022-12-29T11:54:28.728Z,31.45
2022-12-29T11:56:59.639Z,30.15
2022-12-29T11:59:32.517Z,31.88
2022-12-29T12:02:10.600Z,34.97
2022-12-29T12:04:44.002Z,35.53
2022-12-29T12:07:21.324Z,39.20
2022-12-29T12:12:53.737Z,36.88
2022-12-29T12:15:37.003Z,40.25
2022-12-29T12:18:12.724Z,39.40
2022-12-29T12:20:56.226Z,35.88
2022-12-29T12:23:39.705Z,41.75
2022-12-29T12:26:13.802Z,38.60
2022-12-29T12:28:50.280Z,38.15
2022-12-29T12:31:24.253Z,39.63
2022-12-29T12:34:05.624Z,41.78
2022-12-29T12:36:53.752Z,43.08
2022-12-29T12:43:17.265Z,41.75
2022-12-29T12:49:18.138Z,46.38
2022-12-29T12:52:14.155Z,42.88
2022-12-29T12:55:20.536Z,45.00
2022-12-29T12:58:12.721Z,48.55
2022-12-29T13:00:47.124Z,53.58
2022-12-29T13:03:48.658Z,46.50
2022-12-29T13:06:49.774Z,45.30
2022-12-29T13:09:30.095Z,44.60
2022-12-29T13:12:23.194Z,44.08
2022-12-29T13:14:59.306Z,56.75
2022-12-29T13:17:39.216Z,44.25
2022-12-29T13:20:12.677Z,44.28
2022-12-29T13:23:03.620Z,42.58
2022-12-29T13:25:46.241Z,48.95
2022-12-29T13:28:19.908Z,48.88
2022-12-29T13:31:03.102Z,103.55
2022-12-29T13:33:59.662Z,54.25
2022-12-29T13:36:46.915Z,54.72
2022-12-29T13:39:25.821Z,54.47
2022-12-29T13:42:42.399Z,55.35
2022-12-29T13:45:18.175Z,57.60
2022-12-29T13:48:01.326Z,56.70
2022-12-29T13:50:40.296Z,65.22
2022-12-29T13:53:24.726Z,62.28
2022-12-29T13:56:03.929Z,61.58
2022-12-29T13:59:16.977Z,65.50
2022-12-29T14:01:55.008Z,59.58
2022-12-29T14:04:28.234Z,60.33
2022-12-29T14:07:03.843Z,59.15
2022-12-29T14:09:39.313Z,59.63
2022-12-29T14:12:39.200Z,66.72
2022-12-29T14:15:12.327Z,64.78
2022-12-29T14:17:41.854Z,63.20
2022-12-29T14:20:37.990Z,63.65
2022-12-29T14:23:11.425Z,60.33
2022-12-29T14:25:58.397Z,60.78
2022-12-29T14:31:23.328Z,67.53
2022-12-29T14:34:34.483Z,78.63
2022-12-29T14:37:12.363Z,69.88
2022-12-29T14:39:41.384Z,80.97
2022-12-29T14:42:11.584Z,68.32
2022-12-29T14:47:48.642Z,70.78
2022-12-29T14:50:21.934Z,72.10
2022-12-29T14:53:04.217Z,66.85
2022-12-29T14:55:43.774Z,69.82
2022-12-29T14:58:40.889Z,70.03
2022-12-29T15:01:34.243Z,92.10
2022-12-29T15:04:15.659Z,92.25
2022-12-29T15:06:46.004Z,77.07
2022-12-29T15:09:38.479Z,67.40
2022-12-29T15:12:20.793Z,66.10
2022-12-29T15:14:59.510Z,71.85
2022-12-29T15:17:33.897Z,66.00
2022-12-29T15:23:19.757Z,71.22
2022-12-29T15:25:54.140Z,74.20
2022-12-29T15:28:22.616Z,73.75
2022-12-29T15:31:04.976Z,68.43
2022-12-29T15:33:38.137Z,77.43
2022-12-29T15:36:12.632Z,72.15
2022-12-29T15:38:46.791Z,70.22
2022-12-29T15:42:03.366Z,75.65
2022-12-29T15:45:13.253Z,71.10
2022-12-29T15:47:42.708Z,73.72
2022-12-29T15:50:35.350Z,84.93
2022-12-29T15:56:07.981Z,65.93
2022-12-29T15:58:44.240Z,70.43
2022-12-29T16:01:28.420Z,74.53
2022-12-29T16:03:56.753Z,67.45
2022-12-29T16:06:29.746Z,76.00
2022-12-29T16:08:59.566Z,77.10
2022-12-29T16:11:41.881Z,82.38
2022-12-29T16:14:47.252Z,76.70
2022-12-29T16:17:20.355Z,76.38
2022-12-29T16:23:26.684Z,70.78
2022-12-29T16:25:56.317Z,71.38
2022-12-29T16:28:26.398Z,72.68
2022-12-29T16:31:05.307Z,81.20
2022-12-29T16:33:54.222Z,115.45
2022-12-29T16:36:40.592Z,130.00
2022-12-29T16:39:28.640Z,92.35
2022-12-29T16:50:28.945Z,88.05
2022-12-29T16:52:56.549Z,92.68
2022-12-29T16:55:24.241Z,92.20
2022-12-29T16:57:54.815Z,88.95
2022-12-29T17:00:33.676Z,85.95
2022-12-29T17:03:02.012Z,84.70
2022-12-29T17:05:57.342Z,92.78
2022-12-29T17:08:25.325Z,81.85
2022-12-29T17:11:39.235Z,92.80
2022-12-29T17:14:18.223Z,89.68
2022-12-29T17:19:52.143Z,99.60
2022-12-29T17:22:30.448Z,87.57
2022-12-29T17:24:59.765Z,93.65
2022-12-29T17:27:47.136Z,89.75
2022-12-29T17:30:21.336Z,87.88
2022-12-29T17:35:55.411Z,110.40
2022-12-29T17:38:31.863Z,123.63
2022-12-29T17:40:59.905Z,141.32
2022-12-29T17:43:34.605Z,109.35
2022-12-29T17:46:27.751Z,120.00
2022-12-29T17:48:55.408Z,115.22
2022-12-29T17:51:25.180Z,120.00
2022-12-29T17:53:52.328Z,124.63
2022-12-29T17:56:20.828Z,108.82
2022-12-29T17:58:50.377Z,103.22
2022-12-29T18:01:23.832Z,107.00
2022-12-29T18:03:51.166Z,121.53
2022-12-29T18:06:18.173Z,113.55
2022-12-29T18:08:46.194Z,110.75
2022-12-29T18:11:26.303Z,114.32
2022-12-29T18:13:54.277Z,122.85
2022-12-29T18:16:24.969Z,118.45
2022-12-29T18:18:55.223Z,116.53
2022-12-29T18:21:24.375Z,121.75
2022-12-29T18:23:51.491Z,115.03
2022-12-29T18:26:25.650Z,110.78
2022-12-29T18:28:55.218Z,105.63
2022-12-29T18:31:24.435Z,111.18
2022-12-29T18:33:53.238Z,104.93
2022-12-29T18:36:20.844Z,105.75
2022-12-29T18:38:47.870Z,103.60
2022-12-29T18:41:17.820Z,108.45
2022-12-29T18:43:45.444Z,102.22
2022-12-29T18:46:23.123Z,103.72
2022-12-29T18:48:51.706Z,100.75
2022-12-29T18:51:21.932Z,108.38
2022-12-29T18:53:49.352Z,114.80
2022-12-29T18:56:17.450Z,121.47
2022-12-29T18:58:44.218Z,135.00
2022-12-29T19:01:26.085Z,139.68
2022-12-29T19:03:53.681Z,135.77
2022-12-29T19:06:21.456Z,129.90
2022-12-29T19:08:53.558Z,129.65
2022-12-29T19:11:20.543Z,123.00
2022-12-29T19:13:47.882Z,123.70
2022-12-29T19:16:20.741Z,126.22
2022-12-29T19:19:00.957Z,116.78
2022-12-29T19:21:34.544Z,119.47
2022-12-29T19:24:02.337Z,123.30
2022-12-29T19:26:34.642Z,119.40
2022-12-29T19:29:02.020Z,116.80
2022-12-29T19:31:51.789Z,120.13
2022-12-29T19:37:03.802Z,123.28
2022-12-29T19:39:48.434Z,127.05
2022-12-29T19:42:24.690Z,125.63
2022-12-29T19:44:51.601Z,120.75
2022-12-29T19:47:21.146Z,132.90
2022-12-29T19:52:33.651Z,123.30
2022-12-29T19:55:01.543Z,122.20
2022-12-29T19:57:30.932Z,110.57
2022-12-29T19:59:58.673Z,118.75
2022-12-29T20:02:31.770Z,116.03
2022-12-29T20:04:59.511Z,106.20
2022-12-29T20:07:51.618Z,118.55
2022-12-29T20:10:18.642Z,103.90
2022-12-29T20:12:46.800Z,111.88
2022-12-29T20:15:25.699Z,130.60
2022-12-29T20:20:40.976Z,95.07
2022-12-29T20:23:07.937Z,95.85
2022-12-29T20:25:50.886Z,91.40
2022-12-29T20:28:18.943Z,91.60
2022-12-29T20:30:53.987Z,84.93
2022-12-29T20:36:09.300Z,83.63
2022-12-29T20:38:37.918Z,86.40
2022-12-29T20:41:16.131Z,87.88
2022-12-29T20:46:33.977Z,84.47
2022-12-29T20:49:03.631Z,82.43
2022-12-29T20:51:59.288Z,89.80
2022-12-29T20:54:19.827Z,88.68
2022-12-29T20:56:47.073Z,91.15
2022-12-29T20:59:29.737Z,86.10
2022-12-29T21:01:57.670Z,82.45
2022-12-29T21:04:43.811Z,81.72
2022-12-29T21:07:19.916Z,85.93
2022-12-29T21:09:52.395Z,84.80
2022-12-29T21:15:03.537Z,84.15
2022-12-29T21:17:30.424Z,87.47
2022-12-29T21:19:57.996Z,88.78
2022-12-29T21:22:29.639Z,97.57
2022-12-29T21:25:00.495Z,103.97
2022-12-29T21:27:47.536Z,97.55
2022-12-29T21:30:15.149Z,101.85
2022-12-29T21:32:42.152Z,93.38
2022-12-29T21:35:10.299Z,106.00
2022-12-29T21:37:57.056Z,104.68
2022-12-29T21:40:23.942Z,102.50
2022-12-29T21:42:58.339Z,100.00
2022-12-29T21:45:35.369Z,112.38
2022-12-29T21:48:21.863Z,112.05
2022-12-29T21:51:10.062Z,99.07
2022-12-29T21:56:28.295Z,98.88
2022-12-29T21:59:14.251Z,95.57
2022-12-29T22:01:59.700Z,104.10
2022-12-29T22:04:46.207Z,92.75
2022-12-29T22:10:33.263Z,120.43
2022-12-29T22:13:08.035Z,101.95
2022-12-29T22:15:37.230Z,103.28
2022-12-29T22:20:48.222Z,84.40
2022-12-29T22:23:38.517Z,89.72
2022-12-29T22:26:09.402Z,87.72
2022-12-29T22:28:41.220Z,77.25
2022-12-29T22:31:27.912Z,68.15
2022-12-29T22:34:01.185Z,67.63
2022-12-29T22:36:35.349Z,70.68
2022-12-29T22:39:03.120Z,71.45
2022-12-29T22:41:30.162Z,73.25
2022-12-29T22:43:57.919Z,75.15
2022-12-29T22:46:25.014Z,70.45
2022-12-29T22:49:01.090Z,71.70
2022-12-29T22:51:30.519Z,78.30
2022-12-29T22:53:58.512Z,71.22
2022-12-29T22:56:25.377Z,72.63
2022-12-29T22:58:54.591Z,76.25
2022-12-29T23:01:23.696Z,75.13
2022-12-29T23:03:50.714Z,71.45
2022-12-29T23:06:17.988Z,82.80
2022-12-29T23:08:45.467Z,82.72
2022-12-29T23:11:20.569Z,80.78
2022-12-29T23:13:47.555Z,81.85
2022-12-29T23:16:15.713Z,82.95
2022-12-29T23:18:46.057Z,82.63
2022-12-29T23:21:15.124Z,76.40
2022-12-29T23:24:04.110Z,76.57
2022-12-29T23:26:40.568Z,85.65
2022-12-29T23:29:10.887Z,74.07
2022-12-29T23:31:38.663Z,78.53
2022-12-29T23:34:07.728Z,75.38
2022-12-29T23:36:34.682Z,69.03
2022-12-29T23:39:02.010Z,69.82
2022-12-29T23:41:28.903Z,72.47
2022-12-29T23:43:56.201Z,74.28
2022-12-29T23:46:25.425Z,73.43
2022-12-29T23:48:52.684Z,75.10
2022-12-29T23:51:19.861Z,75.57
2022-12-29T23:53:47.256Z,70.80
2022-12-29T23:56:23.677Z,69.35
2022-12-29T23:58:51.668Z,70.45
